FRS146 EDXH-EDXH
Flight info
| Callsign | FRS146 |
|---|---|
| Flight time | 0h 4m |
| Altitude | 2500 |
| Route | EDXH DCT EDXH |
| Aircraft | PA24/L-SDGY/7000 |
Departure
| Time | 2026-04-24 19:12 |
|---|---|
| Airport | Helgoland-Düne Airport (EDXH) |
Arrival
| Time | 2026-04-24 19:16 |
|---|---|
| Airport | Helgoland-Düne Airport (EDXH) |
| Time | Latitude | Longitude | Altitude | Speed | Heading |
|---|---|---|---|---|---|
| 2026-04-24 19:06 | 54.18737 | 7.91608 | 4 ft | 0 kts | 36° |
| 2026-04-24 19:06 | 54.18754 | 7.91610 | 4 ft | 5 kts | 303° |
| 2026-04-24 19:07 | 54.18730 | 7.91609 | 4 ft | 7 kts | 130° |
| 2026-04-24 19:07 | 54.18687 | 7.91613 | 2 ft | 4 kts | 204° |
| 2026-04-24 19:07 | 54.18670 | 7.91582 | 3 ft | 9 kts | 239° |
| 2026-04-24 19:07 | 54.18631 | 7.91480 | 3 ft | 9 kts | 233° |
| 2026-04-24 19:08 | 54.18602 | 7.91409 | 3 ft | 6 kts | 232° |
| 2026-04-24 19:08 | 54.18596 | 7.91397 | 4 ft | 5 kts | 232° |
| 2026-04-24 19:08 | 54.18560 | 7.91392 | 4 ft | 11 kts | 153° |
| 2026-04-24 19:08 | 54.18483 | 7.91483 | 7 ft | 15 kts | 146° |
| 2026-04-24 19:09 | 54.18405 | 7.91574 | 5 ft | 11 kts | 144° |
| 2026-04-24 19:09 | 54.18351 | 7.91633 | 10 ft | 7 kts | 147° |
| 2026-04-24 19:09 | 54.18319 | 7.91662 | 9 ft | 5 kts | 133° |
| 2026-04-24 19:09 | 54.18324 | 7.91679 | 12 ft | 2 kts | 336° |
| 2026-04-24 19:10 | 54.18326 | 7.91677 | 12 ft | 0 kts | 326° |
| 2026-04-24 19:10 | 54.18394 | 7.91594 | 5 ft | 39 kts | 324° |
| 2026-04-24 19:10 | 54.18682 | 7.91175 | 44 ft | 59 kts | 313° |
| 2026-04-24 19:10 | 54.18975 | 7.90687 | 113 ft | 60 kts | 300° |
| 2026-04-24 19:11 | 54.19203 | 7.90029 | 164 ft | 62 kts | 291° |
| 2026-04-24 19:11 | 54.19499 | 7.89406 | 177 ft | 78 kts | 319° |
| 2026-04-24 19:11 | 54.19993 | 7.88960 | 244 ft | 82 kts | 341° |
| 2026-04-24 19:11 | 54.20565 | 7.88937 | 325 ft | 86 kts | 6° |
| 2026-04-24 19:12 | 54.21134 | 7.89456 | 339 ft | 101 kts | 44° |
| 2026-04-24 19:12 | 54.21495 | 7.90527 | 402 ft | 107 kts | 72° |
| 2026-04-24 19:12 | 54.21526 | 7.91793 | 492 ft | 107 kts | 102° |
| 2026-04-24 19:12 | 54.21197 | 7.92860 | 639 ft | 93 kts | 141° |
| 2026-04-24 19:13 | 54.20837 | 7.93249 | 603 ft | 95 kts | 152° |
| 2026-04-24 19:13 | 54.20056 | 7.93956 | 458 ft | 96 kts | 156° |
| 2026-04-24 19:13 | 54.19431 | 7.94443 | 292 ft | 100 kts | 154° |
| 2026-04-24 19:13 | 54.18826 | 7.94941 | 236 ft | 94 kts | 161° |
| 2026-04-24 19:14 | 54.18234 | 7.95386 | 238 ft | 87 kts | 147° |
| 2026-04-24 19:14 | 54.17702 | 7.95832 | 227 ft | 86 kts | 168° |
| 2026-04-24 19:14 | 54.17140 | 7.95794 | 226 ft | 82 kts | 201° |
| 2026-04-24 19:14 | 54.16746 | 7.95219 | 279 ft | 67 kts | 241° |
| 2026-04-24 19:15 | 54.16635 | 7.94757 | 328 ft | 59 kts | 255° |
| 2026-04-24 19:15 | 54.16661 | 7.93803 | 328 ft | 62 kts | 286° |
| 2026-04-24 19:15 | 54.16883 | 7.93148 | 327 ft | 63 kts | 311° |
| 2026-04-24 19:15 | 54.17149 | 7.92884 | 266 ft | 70 kts | 335° |
| 2026-04-24 19:16 | 54.17968 | 7.92109 | 170 ft | 63 kts | 321° |
| 2026-04-24 19:16 | 54.18320 | 7.91676 | 42 ft | 61 kts | 323° |
| 2026-04-24 19:16 | 54.18607 | 7.91326 | 6 ft | 27 kts | 322° |
| 2026-04-24 19:17 | 54.18651 | 7.91288 | 7 ft | 3 kts | 338° |
| 2026-04-24 19:17 | 54.18653 | 7.91269 | 7 ft | 1 kts | 185° |
| 2026-04-24 19:17 | 54.18622 | 7.91310 | 6 ft | 9 kts | 140° |
| 2026-04-24 19:17 | 54.18606 | 7.91414 | 3 ft | 10 kts | 57° |
| 2026-04-24 19:18 | 54.18644 | 7.91506 | 3 ft | 9 kts | 56° |
| 2026-04-24 19:18 | 54.18674 | 7.91578 | 3 ft | 5 kts | 31° |
| 2026-04-24 19:18 | 54.18711 | 7.91589 | 4 ft | 5 kts | 20° |
| 2026-04-24 19:18 | 54.18740 | 7.91605 | 4 ft | 4 kts | 346° |
| 2026-04-24 19:19 | 54.18753 | 7.91592 | 4 ft | 0 kts | 326° |